In Rescue
 
Open Full Screen Window  High Contrast Mode
November 19, 2019 12:56 PM EST
Present Weather: Mist
Weather Information
Wind Direction
  ---
Wind Speed
  00 kt (0 mph)
Wind Gust
  00 kt (0 mph)
Altimeter
29.80 in
Visibility
1 1/4 SM
Temperature
03° C
37° F
Dewpoint
02° C
36° F
Humidity
93%
Sky Condition
Overcast @ 200 ft
LIFR

METAR KCFS 191756Z AUTO 00000KT 1 1/4SM BR OVC002 03/02 A2980 RMK AO2 T00300016 10030 21015

FAA Disclaimer: The data displayed is for advisory purposes only and is not to be used for flight planning or operations.